Аэропорт: Игнатьево. Благовещенск

ICAO: UHBB

METAR:
2021-07-28 13:00:00
UHBB 281300Z 25001MPS 9999 FEW033 21/20 Q1002 R36/090060 NOSIG RMK QFE734/0979
METAR:
2021-07-28 11:00:00
TAF UHBB 281100Z 2812/2912 28003MPS 9999 SCT033 BECMG 2818/2819 0300 FG VV002 FM282300 26003G08MPS 9999 SCT025CB TEMPO 2823/2912 3100 -TSRA